createdAt,value
2023-05-10T00:00:13.899Z,11.50
2023-05-10T00:01:13.787Z,18.60
2023-05-10T00:02:13.806Z,12.40
2023-05-10T00:03:13.847Z,13.90
2023-05-10T00:04:13.850Z,10.80
2023-05-10T00:05:13.737Z,12.90
2023-05-10T00:06:13.717Z,11.70
2023-05-10T00:07:13.703Z,12.00
2023-05-10T00:08:13.720Z,13.30
2023-05-10T00:09:13.679Z,11.50
2023-05-10T00:10:13.827Z,10.30
2023-05-10T00:11:13.673Z,13.30
2023-05-10T00:12:13.660Z,11.00
2023-05-10T00:13:13.670Z,13.70
2023-05-10T00:14:13.637Z,12.60
2023-05-10T00:15:13.621Z,14.90
2023-05-10T00:16:13.655Z,9.80
2023-05-10T00:17:13.615Z,10.20
2023-05-10T00:18:13.589Z,13.00
2023-05-10T00:19:13.587Z,13.40
2023-05-10T00:20:13.782Z,10.80
2023-05-10T00:21:13.582Z,11.90
2023-05-10T00:22:13.564Z,11.50
2023-05-10T00:23:13.543Z,12.00
2023-05-10T00:24:13.526Z,10.80
2023-05-10T00:25:13.532Z,12.80
2023-05-10T00:26:13.532Z,16.30
2023-05-10T00:27:13.519Z,13.30
2023-05-10T00:28:13.485Z,12.00
2023-05-10T00:29:13.476Z,12.50
2023-05-10T00:30:13.629Z,12.10
2023-05-10T00:31:13.480Z,14.20
2023-05-10T00:32:13.560Z,16.30
2023-05-10T00:33:13.442Z,13.90
2023-05-10T00:34:13.432Z,12.50
2023-05-10T00:35:13.423Z,16.20
2023-05-10T00:36:13.419Z,19.50
2023-05-10T00:37:13.405Z,15.90
2023-05-10T00:38:13.383Z,11.50
2023-05-10T00:39:13.395Z,14.90
2023-05-10T00:40:13.464Z,13.60
2023-05-10T00:41:13.374Z,13.00
2023-05-10T00:42:13.347Z,12.50
2023-05-10T00:43:13.336Z,16.80
2023-05-10T00:44:13.316Z,15.50
2023-05-10T00:45:13.340Z,12.00
2023-05-10T00:46:13.326Z,31.10
2023-05-10T00:47:13.298Z,18.90
2023-05-10T00:48:13.296Z,15.70
2023-05-10T00:49:13.278Z,17.10
2023-05-10T00:50:13.332Z,13.20
2023-05-10T00:51:13.257Z,14.20
2023-05-10T00:52:13.239Z,16.90
2023-05-10T00:53:13.232Z,15.50
2023-05-10T00:54:13.241Z,14.70
2023-05-10T00:55:13.228Z,20.70
2023-05-10T00:56:13.199Z,13.00
2023-05-10T00:57:13.204Z,15.70
2023-05-10T00:58:13.190Z,16.10
2023-05-10T00:59:13.184Z,14.90
2023-05-10T01:00:13.205Z,15.20
2023-05-10T01:01:13.222Z,17.50
2023-05-10T01:02:13.160Z,13.50
2023-05-10T01:03:13.257Z,15.60
2023-05-10T01:04:13.136Z,14.30
2023-05-10T01:05:13.194Z,15.70
2023-05-10T01:06:13.125Z,14.20
2023-05-10T01:07:13.087Z,17.30
2023-05-10T01:08:13.092Z,16.20
2023-05-10T01:09:13.102Z,19.80
2023-05-10T01:10:13.088Z,17.50
2023-05-10T01:11:13.061Z,16.10
2023-05-10T01:12:13.081Z,17.90
2023-05-10T01:13:13.117Z,13.20
2023-05-10T01:14:13.018Z,13.20
2023-05-10T01:15:13.004Z,14.20
2023-05-10T01:16:13.022Z,14.60
2023-05-10T01:17:13.080Z,14.30
2023-05-10T01:18:12.997Z,12.00
2023-05-10T01:19:12.968Z,9.80
2023-05-10T01:20:12.966Z,11.70
2023-05-10T01:21:12.965Z,12.50
2023-05-10T01:22:12.965Z,9.60
2023-05-10T01:23:12.946Z,9.40
2023-05-10T01:24:12.935Z,12.80
2023-05-10T01:25:12.912Z,10.40
2023-05-10T01:26:12.912Z,11.10
2023-05-10T01:27:12.903Z,10.00
2023-05-10T01:28:12.871Z,9.40
2023-05-10T01:29:12.871Z,10.50
2023-05-10T01:30:15.824Z,10.20
2023-05-10T01:31:12.928Z,8.10
2023-05-10T01:32:12.862Z,8.60
2023-05-10T01:33:12.831Z,9.60
2023-05-10T01:34:12.818Z,12.00
2023-05-10T01:35:12.801Z,8.50
2023-05-10T01:36:12.818Z,8.70
2023-05-10T01:37:12.794Z,10.60
2023-05-10T01:38:12.774Z,7.70
2023-05-10T01:39:12.763Z,6.90
2023-05-10T01:40:12.842Z,8.20
2023-05-10T01:41:12.748Z,10.40
2023-05-10T01:42:12.734Z,9.10
2023-05-10T01:43:12.717Z,11.90
2023-05-10T01:44:12.708Z,9.30
2023-05-10T01:45:12.698Z,9.20
2023-05-10T01:46:12.718Z,6.50
2023-05-10T01:47:12.679Z,10.90
2023-05-10T01:48:12.724Z,11.40
2023-05-10T01:49:12.692Z,7.00
2023-05-10T01:50:12.669Z,9.30
2023-05-10T01:51:12.645Z,7.90
2023-05-10T01:52:12.655Z,6.00
2023-05-10T01:53:12.612Z,6.90
2023-05-10T01:54:12.601Z,9.40
2023-05-10T01:55:12.608Z,8.80
2023-05-10T01:56:12.592Z,6.90
2023-05-10T01:57:12.578Z,6.90
2023-05-10T01:58:12.559Z,9.70
2023-05-10T01:59:12.546Z,10.10
2023-05-10T02:00:12.560Z,7.90
2023-05-10T02:01:12.544Z,7.50
2023-05-10T02:02:12.518Z,7.10
2023-05-10T02:03:12.742Z,5.70
2023-05-10T02:04:12.534Z,5.50
2023-05-10T02:05:12.497Z,4.90
2023-05-10T02:06:12.477Z,5.20
2023-05-10T02:07:12.459Z,6.60
2023-05-10T02:08:12.451Z,7.80
2023-05-10T02:09:12.463Z,4.60
2023-05-10T02:10:12.470Z,3.70
2023-05-10T02:11:12.430Z,6.10
2023-05-10T02:12:12.414Z,4.10
2023-05-10T02:13:12.443Z,4.20
2023-05-10T02:14:12.419Z,4.40
2023-05-10T02:15:12.381Z,5.40
2023-05-10T02:16:12.387Z,4.50
2023-05-10T02:17:12.356Z,8.00
2023-05-10T02:18:12.386Z,5.10
2023-05-10T02:19:12.354Z,6.00
2023-05-10T02:20:12.333Z,7.80
2023-05-10T02:21:12.341Z,5.20
2023-05-10T02:22:12.374Z,8.40
2023-05-10T02:23:12.318Z,7.90
2023-05-10T02:24:12.288Z,5.40
2023-05-10T02:25:12.270Z,6.80
2023-05-10T02:26:12.268Z,6.40
2023-05-10T02:27:12.249Z,4.50
2023-05-10T02:28:12.271Z,5.10
2023-05-10T02:29:12.227Z,5.50
2023-05-10T02:30:12.228Z,5.60
2023-05-10T02:31:12.227Z,9.70
2023-05-10T02:32:12.238Z,6.70
2023-05-10T02:33:12.229Z,6.50
2023-05-10T02:34:12.186Z,15.40
2023-05-10T02:35:12.166Z,6.80
2023-05-10T02:36:12.166Z,8.20
2023-05-10T02:37:12.163Z,5.40
2023-05-10T02:38:12.137Z,8.20
2023-05-10T02:39:12.125Z,7.00
2023-05-10T02:40:12.125Z,9.40
2023-05-10T02:41:12.108Z,6.50
2023-05-10T02:42:12.117Z,11.10
2023-05-10T02:43:12.087Z,3.90
2023-05-10T02:44:12.077Z,11.20
2023-05-10T02:45:12.077Z,9.20
2023-05-10T02:46:12.194Z,9.70
2023-05-10T02:47:12.068Z,12.40
2023-05-10T02:48:12.069Z,8.60
2023-05-10T02:49:12.037Z,8.30
2023-05-10T02:50:12.023Z,8.80
2023-05-10T02:51:12.030Z,7.40
2023-05-10T02:52:12.000Z,5.80
2023-05-10T02:53:11.987Z,5.00
2023-05-10T02:54:11.974Z,12.60
2023-05-10T02:55:11.977Z,9.20
2023-05-10T02:56:11.978Z,9.90
2023-05-10T02:57:11.943Z,7.70
2023-05-10T02:58:11.946Z,6.10
2023-05-10T02:59:11.921Z,8.50
2023-05-10T03:00:11.932Z,11.60
2023-05-10T03:01:11.914Z,6.00
2023-05-10T03:02:11.885Z,9.60
2023-05-10T03:03:11.907Z,7.80
2023-05-10T03:04:11.904Z,7.50
2023-05-10T03:05:11.950Z,10.80
2023-05-10T03:06:11.860Z,7.80
2023-05-10T03:07:11.848Z,14.00
2023-05-10T03:08:11.837Z,10.50
2023-05-10T03:09:11.836Z,9.70
2023-05-10T03:10:11.833Z,6.40
2023-05-10T03:11:11.808Z,4.90
2023-05-10T03:12:11.792Z,5.90
2023-05-10T03:13:11.832Z,8.60
2023-05-10T03:14:11.810Z,4.50
2023-05-10T03:15:11.762Z,5.40
2023-05-10T03:16:11.772Z,3.00
2023-05-10T03:17:11.739Z,3.90
2023-05-10T03:18:11.736Z,6.60
2023-05-10T03:19:11.739Z,7.50
2023-05-10T03:20:11.717Z,5.10
2023-05-10T03:21:11.692Z,6.20
2023-05-10T03:22:11.690Z,3.00
2023-05-10T03:23:11.705Z,3.00
2023-05-10T03:24:11.692Z,3.80
2023-05-10T03:25:11.673Z,5.30
2023-05-10T03:26:11.653Z,4.10
2023-05-10T03:27:11.669Z,1.40
2023-05-10T03:28:11.648Z,3.00
2023-05-10T03:29:11.620Z,2.40
2023-05-10T03:30:11.622Z,4.60
2023-05-10T03:31:11.657Z,1.70
2023-05-10T03:32:11.592Z,2.10
2023-05-10T03:33:11.594Z,3.00
2023-05-10T03:34:11.576Z,2.10
2023-05-10T03:35:11.562Z,1.40
2023-05-10T03:36:11.566Z,2.20
2023-05-10T03:37:11.556Z,4.80
2023-05-10T03:38:11.555Z,3.40
2023-05-10T03:39:11.526Z,2.90
2023-05-10T03:40:11.530Z,3.20
2023-05-10T03:41:11.504Z,3.00
2023-05-10T03:42:11.510Z,6.90
2023-05-10T03:43:11.476Z,2.20
2023-05-10T03:44:11.486Z,4.80
2023-05-10T03:45:11.472Z,3.40
2023-05-10T03:46:11.561Z,4.80
2023-05-10T03:47:11.461Z,4.80
2023-05-10T03:48:11.472Z,7.80
2023-05-10T03:49:11.417Z,3.40
2023-05-10T03:50:11.420Z,7.10
2023-05-10T03:51:11.442Z,2.40
2023-05-10T03:52:11.415Z,3.80
2023-05-10T03:53:11.381Z,3.00
2023-05-10T03:54:11.370Z,5.70
2023-05-10T03:55:11.363Z,7.00
2023-05-10T03:56:11.378Z,6.90
2023-05-10T03:57:11.340Z,3.90
2023-05-10T03:58:11.341Z,10.50
2023-05-10T03:59:11.330Z,7.60
2023-05-10T04:00:11.282Z,3.50
2023-05-10T04:01:11.258Z,5.70
2023-05-10T04:02:11.318Z,4.30
2023-05-10T04:03:11.375Z,4.70
2023-05-10T04:04:11.308Z,3.80
2023-05-10T04:05:11.291Z,6.50
2023-05-10T04:06:11.343Z,6.30
2023-05-10T04:07:11.241Z,6.00
2023-05-10T04:08:11.229Z,3.10
2023-05-10T04:09:11.222Z,4.70
2023-05-10T04:10:11.229Z,4.20
2023-05-10T04:11:11.198Z,3.60
2023-05-10T04:12:11.250Z,4.90
2023-05-10T04:13:11.202Z,2.70
2023-05-10T04:14:11.179Z,2.40
2023-05-10T04:15:11.174Z,4.40
2023-05-10T04:16:11.118Z,2.20
2023-05-10T04:17:11.244Z,3.00
2023-05-10T04:18:11.220Z,4.90
2023-05-10T04:19:11.137Z,5.50
2023-05-10T04:20:11.145Z,4.70
2023-05-10T04:21:11.105Z,5.30
2023-05-10T04:22:11.092Z,1.90
2023-05-10T04:23:11.084Z,0.80
2023-05-10T04:24:11.471Z,2.90
2023-05-10T04:25:11.035Z,1.00
2023-05-10T04:26:10.993Z,1.60
2023-05-10T04:27:10.984Z,0.80
2023-05-10T04:28:10.981Z,2.70
2023-05-10T04:29:10.992Z,7.00
2023-05-10T04:30:10.964Z,5.60
2023-05-10T04:31:11.017Z,2.90
2023-05-10T04:32:10.937Z,5.10
2023-05-10T04:33:10.944Z,2.40
2023-05-10T04:34:10.935Z,2.70
2023-05-10T04:35:10.904Z,2.20
2023-05-10T04:36:10.895Z,2.00
2023-05-10T04:37:10.889Z,5.80
2023-05-10T04:38:10.896Z,9.20
2023-05-10T04:39:10.871Z,2.80
2023-05-10T04:40:10.860Z,6.00
2023-05-10T04:41:10.841Z,3.70
2023-05-10T04:42:10.837Z,4.90
2023-05-10T04:43:10.836Z,3.90
2023-05-10T04:44:10.816Z,3.80
2023-05-10T04:45:10.798Z,1.40
2023-05-10T04:46:10.847Z,3.50
2023-05-10T04:47:12.708Z,1.50
2023-05-10T04:48:10.794Z,2.40
2023-05-10T04:49:10.765Z,1.50
2023-05-10T04:50:10.766Z,3.40
2023-05-10T04:51:10.744Z,3.90
2023-05-10T04:52:10.767Z,1.10
2023-05-10T04:53:10.726Z,4.10
2023-05-10T04:54:10.717Z,3.20
2023-05-10T04:55:10.703Z,2.10
2023-05-10T04:56:10.691Z,2.90
2023-05-10T04:57:10.697Z,5.10
2023-05-10T04:58:10.683Z,3.20
2023-05-10T04:59:10.659Z,4.00
2023-05-10T05:00:10.655Z,2.30
2023-05-10T05:01:10.726Z,1.50
2023-05-10T05:02:10.838Z,2.50
2023-05-10T05:03:10.762Z,5.00
2023-05-10T05:04:10.616Z,2.00
2023-05-10T05:05:10.608Z,3.40
2023-05-10T05:06:10.612Z,6.60
2023-05-10T05:07:10.584Z,3.40
2023-05-10T05:08:10.584Z,4.30
2023-05-10T05:09:10.573Z,4.10
2023-05-10T05:10:10.562Z,5.00
2023-05-10T05:11:10.568Z,4.60
2023-05-10T05:12:10.541Z,2.80
2023-05-10T05:13:10.548Z,3.30
2023-05-10T05:14:10.511Z,2.00
2023-05-10T05:15:10.511Z,1.20
2023-05-10T05:16:10.519Z,3.50
2023-05-10T05:17:10.481Z,2.10
2023-05-10T05:18:10.502Z,1.80
2023-05-10T05:19:10.460Z,6.50
2023-05-10T05:20:10.475Z,3.20
2023-05-10T05:21:10.440Z,4.10
2023-05-10T05:22:10.440Z,2.10
2023-05-10T05:23:10.430Z,5.50
2023-05-10T05:24:10.413Z,3.80
2023-05-10T05:25:10.419Z,2.20
2023-05-10T05:26:10.411Z,1.70
2023-05-10T05:27:10.385Z,2.00
2023-05-10T05:28:10.408Z,1.20
2023-05-10T05:29:10.379Z,1.90
2023-05-10T05:30:10.388Z,2.60
2023-05-10T05:31:10.438Z,1.30
2023-05-10T05:32:10.376Z,5.80
2023-05-10T05:33:10.388Z,1.10
2023-05-10T05:34:10.337Z,1.60
2023-05-10T05:35:10.305Z,4.90
2023-05-10T05:36:10.300Z,0.70
2023-05-10T05:37:10.279Z,1.40
2023-05-10T05:38:10.269Z,2.70
2023-05-10T05:39:10.280Z,5.00
2023-05-10T05:40:10.258Z,1.70
2023-05-10T05:41:10.240Z,2.70
2023-05-10T05:42:10.222Z,3.40
2023-05-10T05:43:10.236Z,2.50
2023-05-10T05:44:10.224Z,2.20
2023-05-10T05:45:10.202Z,5.40
2023-05-10T05:46:10.189Z,0.60
2023-05-10T05:47:10.182Z,3.90
2023-05-10T05:48:10.215Z,2.60
2023-05-10T05:49:10.164Z,2.70
2023-05-10T05:50:10.146Z,4.00
2023-05-10T05:51:10.148Z,3.00
2023-05-10T05:52:10.126Z,2.80
2023-05-10T05:53:10.269Z,3.40
2023-05-10T05:54:10.110Z,5.70
2023-05-10T05:55:10.096Z,4.40
2023-05-10T05:56:10.105Z,3.00
2023-05-10T05:57:10.092Z,3.50
2023-05-10T05:58:10.116Z,2.10
2023-05-10T05:59:10.175Z,4.00
2023-05-10T06:00:10.065Z,2.10
2023-05-10T06:01:10.073Z,1.20
2023-05-10T06:02:10.100Z,3.50
2023-05-10T06:03:10.062Z,2.30
2023-05-10T06:04:10.012Z,5.00
2023-05-10T06:05:10.011Z,2.80
2023-05-10T06:06:09.995Z,4.50
2023-05-10T06:07:09.994Z,2.30
2023-05-10T06:08:09.963Z,3.00
2023-05-10T06:09:09.965Z,4.20
2023-05-10T06:10:09.961Z,4.80
2023-05-10T06:11:09.967Z,5.70
2023-05-10T06:12:09.954Z,3.10
2023-05-10T06:13:09.996Z,3.00
2023-05-10T06:14:09.902Z,4.50
2023-05-10T06:15:09.907Z,6.30
2023-05-10T06:16:09.973Z,3.70
2023-05-10T06:17:09.874Z,3.40
2023-05-10T06:18:09.978Z,2.80
2023-05-10T06:19:09.865Z,1.60
2023-05-10T06:20:09.857Z,5.10
2023-05-10T06:21:09.853Z,4.20
2023-05-10T06:22:09.833Z,3.20
2023-05-10T06:23:09.819Z,4.60
2023-05-10T06:24:09.807Z,5.30
2023-05-10T06:25:09.821Z,3.30
2023-05-10T06:26:09.816Z,0.80
2023-05-10T06:27:09.780Z,7.40
2023-05-10T06:28:09.773Z,3.70
2023-05-10T06:29:09.769Z,2.80
2023-05-10T06:30:13.286Z,2.10
2023-05-10T06:31:09.785Z,3.10
2023-05-10T06:32:09.720Z,2.50
2023-05-10T06:33:09.777Z,0.80
2023-05-10T06:34:09.699Z,3.90
2023-05-10T06:35:09.723Z,5.80
2023-05-10T06:36:09.687Z,3.20
2023-05-10T06:37:09.683Z,2.70
2023-05-10T06:38:09.662Z,4.60
2023-05-10T06:39:09.687Z,3.30
2023-05-10T06:40:09.657Z,2.00
2023-05-10T06:41:09.649Z,0.60
2023-05-10T06:42:09.630Z,3.10
2023-05-10T06:43:09.611Z,2.20
2023-05-10T06:44:09.622Z,4.30
2023-05-10T06:45:09.609Z,3.50
2023-05-10T06:46:09.612Z,2.00
2023-05-10T06:47:09.568Z,2.80
2023-05-10T06:48:09.605Z,2.50
2023-05-10T06:49:09.569Z,3.00
2023-05-10T06:50:09.590Z,4.90
2023-05-10T06:51:09.535Z,2.20
2023-05-10T06:52:09.550Z,7.10
2023-05-10T06:53:09.531Z,6.40
2023-05-10T06:54:09.568Z,17.80
2023-05-10T06:55:09.498Z,24.10
2023-05-10T06:56:09.472Z,14.20
2023-05-10T06:57:23.423Z,7.60
2023-05-10T06:58:10.488Z,5.30
2023-05-10T06:59:09.499Z,13.60
2023-05-10T07:00:09.473Z,13.20
2023-05-10T07:01:09.672Z,23.40
2023-05-10T07:02:09.439Z,15.60
2023-05-10T07:03:09.494Z,9.50
2023-05-10T07:04:09.396Z,8.90
2023-05-10T07:05:09.386Z,7.90
2023-05-10T07:06:15.652Z,7.20
2023-05-10T07:07:10.361Z,2.90
2023-05-10T07:08:09.368Z,3.00
2023-05-10T07:09:09.345Z,4.30
2023-05-10T07:10:09.331Z,1.50
2023-05-10T07:11:09.325Z,0.70
2023-05-10T07:12:11.101Z,1.30
2023-05-10T07:13:09.494Z,2.80
2023-05-10T07:14:09.289Z,4.30
2023-05-10T07:15:09.278Z,3.80
2023-05-10T07:16:09.320Z,1.30
2023-05-10T07:17:09.346Z,2.40
2023-05-10T07:18:09.306Z,3.30
2023-05-10T07:19:09.245Z,1.80
2023-05-10T07:20:09.230Z,6.80
2023-05-10T07:21:09.261Z,1.40
2023-05-10T07:22:09.222Z,1.10
2023-05-10T07:23:09.221Z,1.60
2023-05-10T07:24:09.198Z,1.30
2023-05-10T07:25:09.183Z,1.50
2023-05-10T07:26:09.185Z,0.90
2023-05-10T07:27:09.175Z,1.90
2023-05-10T07:28:09.147Z,1.90
2023-05-10T07:29:09.147Z,4.20
2023-05-10T07:30:09.134Z,1.20
2023-05-10T07:31:09.168Z,1.10
2023-05-10T07:32:09.211Z,2.90
2023-05-10T07:33:09.150Z,2.10
2023-05-10T07:34:09.094Z,4.90
2023-05-10T07:35:09.079Z,3.10
2023-05-10T07:36:09.077Z,2.10
2023-05-10T07:37:09.083Z,1.90
2023-05-10T07:38:09.039Z,3.90
2023-05-10T07:39:09.055Z,3.40
2023-05-10T07:40:09.045Z,3.80
2023-05-10T07:41:09.032Z,6.00
2023-05-10T07:42:09.002Z,7.50
2023-05-10T07:43:09.014Z,2.00
2023-05-10T07:44:08.976Z,2.90
2023-05-10T07:45:08.992Z,3.70
2023-05-10T07:46:09.034Z,3.60
2023-05-10T07:47:08.948Z,3.20
2023-05-10T07:48:08.975Z,3.50
2023-05-10T07:49:08.932Z,3.40
2023-05-10T07:50:08.944Z,3.00
2023-05-10T07:51:08.908Z,2.50
2023-05-10T07:52:08.929Z,4.40
2023-05-10T07:53:08.906Z,2.50
2023-05-10T07:54:08.912Z,2.10
2023-05-10T07:55:08.887Z,4.40
2023-05-10T07:56:08.864Z,4.60
2023-05-10T07:57:08.843Z,2.40
2023-05-10T07:58:08.860Z,4.60
2023-05-10T07:59:10.667Z,6.50
2023-05-10T08:00:08.830Z,4.40
2023-05-10T08:01:08.807Z,3.60
2023-05-10T08:02:08.877Z,4.00
2023-05-10T08:03:08.860Z,2.20
2023-05-10T08:04:08.918Z,2.40
2023-05-10T08:05:08.766Z,2.40
2023-05-10T08:06:08.776Z,6.00
2023-05-10T08:07:08.768Z,1.90
2023-05-10T08:08:08.757Z,3.70
2023-05-10T08:09:08.748Z,2.70
2023-05-10T08:10:08.724Z,2.20
2023-05-10T08:11:08.715Z,3.40
2023-05-10T08:12:08.716Z,3.80
2023-05-10T08:13:08.702Z,2.90
2023-05-10T08:14:08.682Z,2.70
2023-05-10T08:15:08.676Z,3.40
2023-05-10T08:16:08.736Z,1.50
2023-05-10T08:17:08.649Z,3.50
2023-05-10T08:18:08.711Z,5.60
2023-05-10T08:19:08.714Z,5.90
2023-05-10T08:20:08.632Z,3.50
2023-05-10T08:21:08.600Z,9.20
2023-05-10T08:22:08.634Z,6.70
2023-05-10T08:23:08.608Z,3.70
2023-05-10T08:24:08.588Z,3.20
2023-05-10T08:25:08.567Z,1.40
2023-05-10T08:26:08.558Z,2.90
2023-05-10T08:27:08.565Z,2.90
2023-05-10T08:28:09.991Z,5.70
2023-05-10T08:29:08.518Z,2.20
2023-05-10T08:30:08.518Z,4.30
2023-05-10T08:31:08.565Z,3.90
2023-05-10T08:32:08.532Z,2.80
2023-05-10T08:33:08.569Z,3.20
2023-05-10T08:34:08.494Z,1.80
2023-05-10T08:35:08.462Z,5.40
2023-05-10T08:36:08.478Z,6.50
2023-05-10T08:37:08.472Z,2.20
2023-05-10T08:38:08.440Z,7.20
2023-05-10T08:39:16.245Z,9.60
2023-05-10T08:40:09.421Z,4.80
2023-05-10T08:41:08.424Z,4.70
2023-05-10T08:42:08.405Z,3.00
2023-05-10T08:43:08.384Z,5.10
2023-05-10T08:44:08.378Z,3.00
2023-05-10T08:45:08.359Z,5.80
2023-05-10T08:46:08.461Z,4.40
2023-05-10T08:47:08.399Z,6.10
2023-05-10T08:48:08.405Z,3.50
2023-05-10T08:49:08.325Z,7.20
2023-05-10T08:50:08.339Z,2.80
2023-05-10T08:51:08.325Z,2.30
2023-05-10T08:52:08.354Z,3.80
2023-05-10T08:53:08.282Z,5.00
2023-05-10T08:54:08.269Z,5.60
2023-05-10T08:55:08.283Z,3.70
2023-05-10T08:56:08.250Z,4.70
2023-05-10T08:57:08.238Z,3.70
2023-05-10T08:58:08.240Z,8.90
2023-05-10T08:59:08.228Z,4.50
2023-05-10T09:00:08.241Z,3.40
2023-05-10T09:01:08.228Z,2.70
2023-05-10T09:02:08.194Z,5.20
2023-05-10T09:03:08.238Z,3.70
2023-05-10T09:04:08.267Z,6.10
2023-05-10T09:05:08.250Z,3.70
2023-05-10T09:06:08.182Z,4.30
2023-05-10T09:07:08.125Z,3.20
2023-05-10T09:08:08.123Z,6.00
2023-05-10T09:09:08.133Z,4.40
2023-05-10T09:10:08.123Z,3.80
2023-05-10T09:11:08.093Z,5.90
2023-05-10T09:12:08.102Z,7.50
2023-05-10T09:13:08.076Z,7.80
2023-05-10T09:14:08.252Z,6.10
2023-05-10T09:15:08.048Z,5.30
2023-05-10T09:16:20.542Z,7.50
2023-05-10T09:17:09.060Z,5.50
2023-05-10T09:18:08.088Z,5.40
2023-05-10T09:19:08.258Z,3.20
2023-05-10T09:20:07.997Z,6.20
2023-05-10T09:21:07.991Z,5.30
2023-05-10T09:22:08.006Z,5.80
2023-05-10T09:23:07.980Z,2.20
2023-05-10T09:24:07.987Z,4.90
2023-05-10T09:25:07.942Z,5.80
2023-05-10T09:26:07.947Z,5.60
2023-05-10T09:27:07.943Z,5.70
2023-05-10T09:28:07.947Z,9.00
2023-05-10T09:29:07.908Z,4.40
2023-05-10T09:30:07.906Z,5.50
2023-05-10T09:31:07.944Z,6.80
2023-05-10T09:32:07.885Z,4.10
2023-05-10T09:33:07.946Z,7.00
2023-05-10T09:34:07.860Z,5.90
2023-05-10T09:35:07.850Z,7.80
2023-05-10T09:36:07.846Z,7.20
2023-05-10T09:37:07.835Z,5.80
2023-05-10T09:38:07.822Z,6.60
2023-05-10T09:39:07.809Z,7.00
2023-05-10T09:40:07.798Z,4.50
2023-05-10T09:41:07.885Z,7.50
2023-05-10T09:42:07.808Z,5.00
2023-05-10T09:43:07.780Z,4.00
2023-05-10T09:44:07.750Z,6.50
2023-05-10T09:45:07.766Z,6.60
2023-05-10T09:46:07.784Z,3.20
2023-05-10T09:47:07.741Z,3.40
2023-05-10T09:48:07.939Z,9.10
2023-05-10T09:49:07.703Z,5.50
2023-05-10T09:50:07.744Z,6.00
2023-05-10T09:51:07.719Z,5.60
2023-05-10T09:52:07.680Z,4.70
2023-05-10T09:53:07.677Z,3.90
2023-05-10T09:54:07.645Z,6.60
2023-05-10T09:55:07.650Z,7.10
2023-05-10T09:56:07.646Z,4.10
2023-05-10T09:57:07.632Z,4.00
2023-05-10T09:58:07.612Z,4.80
2023-05-10T09:59:07.595Z,4.90
2023-05-10T10:00:07.604Z,8.20
2023-05-10T10:01:07.618Z,6.50
2023-05-10T10:02:07.701Z,4.60
2023-05-10T10:03:07.624Z,4.40
2023-05-10T10:04:07.563Z,9.00
2023-05-10T10:05:07.739Z,4.50
2023-05-10T10:06:15.864Z,4.10
2023-05-10T10:07:08.523Z,3.90
2023-05-10T10:08:07.515Z,5.90
2023-05-10T10:09:07.533Z,3.90
2023-05-10T10:10:07.503Z,7.40
2023-05-10T10:11:07.485Z,7.00
2023-05-10T10:12:07.462Z,6.90
2023-05-10T10:13:07.457Z,3.20
2023-05-10T10:14:07.463Z,3.80
2023-05-10T10:15:07.464Z,4.60
2023-05-10T10:16:07.475Z,2.80
2023-05-10T10:17:08.904Z,8.40
2023-05-10T10:18:07.452Z,8.50
2023-05-10T10:19:07.446Z,5.90
2023-05-10T10:20:08.729Z,4.10
2023-05-10T10:21:07.378Z,5.00
2023-05-10T10:22:07.414Z,4.10
2023-05-10T10:23:07.358Z,4.00
2023-05-10T10:24:07.359Z,4.20
2023-05-10T10:25:07.369Z,5.20
2023-05-10T10:26:07.333Z,7.50
2023-05-10T10:27:07.312Z,9.00
2023-05-10T10:28:07.318Z,6.30
2023-05-10T10:29:07.314Z,11.60
2023-05-10T10:30:07.290Z,8.80
2023-05-10T10:31:07.326Z,7.20
2023-05-10T10:32:07.265Z,4.20
2023-05-10T10:33:16.529Z,7.70
2023-05-10T10:34:08.275Z,4.50
2023-05-10T10:35:07.234Z,4.70
2023-05-10T10:36:07.221Z,8.60
2023-05-10T10:37:07.243Z,6.40
2023-05-10T10:38:07.226Z,10.70
2023-05-10T10:39:07.200Z,3.40
2023-05-10T10:40:07.176Z,6.80
2023-05-10T10:41:07.191Z,5.20
2023-05-10T10:42:07.186Z,4.50
2023-05-10T10:43:07.202Z,6.10
2023-05-10T10:44:07.147Z,4.70
2023-05-10T10:45:07.130Z,11.20
2023-05-10T10:46:07.110Z,5.30
2023-05-10T10:47:07.208Z,7.50
2023-05-10T10:48:07.167Z,4.90
2023-05-10T10:49:07.079Z,6.80
2023-05-10T10:50:07.088Z,4.90
2023-05-10T10:51:07.091Z,6.10
2023-05-10T10:52:07.071Z,6.80
2023-05-10T10:53:07.109Z,4.40
2023-05-10T10:54:07.034Z,9.60
2023-05-10T10:55:07.029Z,5.40
2023-05-10T10:56:07.027Z,9.00
2023-05-10T10:57:07.022Z,3.10
2023-05-10T10:58:06.996Z,3.40
2023-05-10T10:59:07.001Z,8.70
2023-05-10T11:00:06.966Z,4.00
2023-05-10T11:01:07.019Z,6.40
2023-05-10T11:02:06.956Z,9.40
2023-05-10T11:03:06.983Z,8.50
2023-05-10T11:04:06.989Z,9.50
2023-05-10T11:05:06.939Z,6.50
2023-05-10T11:06:06.929Z,8.30
2023-05-10T11:07:06.898Z,5.60
2023-05-10T11:08:06.890Z,9.50
2023-05-10T11:09:06.877Z,4.10
2023-05-10T11:10:06.885Z,5.00
2023-05-10T11:11:06.865Z,6.50
2023-05-10T11:12:06.858Z,5.00
2023-05-10T11:13:06.838Z,8.00
2023-05-10T11:14:06.826Z,6.30
2023-05-10T11:15:06.835Z,8.00
2023-05-10T11:16:06.806Z,9.50
2023-05-10T11:17:06.948Z,6.50
2023-05-10T11:18:06.821Z,6.30
2023-05-10T11:19:06.952Z,6.50
2023-05-10T11:20:06.776Z,5.20
2023-05-10T11:21:06.758Z,8.30
2023-05-10T11:22:06.780Z,5.60
2023-05-10T11:23:06.754Z,6.80
2023-05-10T11:24:07.124Z,10.80
2023-05-10T11:25:06.732Z,7.40
2023-05-10T11:26:06.711Z,4.90
2023-05-10T11:27:06.711Z,8.00
2023-05-10T11:28:06.692Z,6.80
2023-05-10T11:29:06.711Z,5.60
2023-05-10T11:30:06.764Z,4.80
2023-05-10T11:31:06.689Z,5.00
2023-05-10T11:32:06.649Z,4.90
2023-05-10T11:33:06.752Z,6.10
2023-05-10T11:34:06.646Z,4.80
2023-05-10T11:35:06.627Z,7.70
2023-05-10T11:36:06.608Z,7.70
2023-05-10T11:37:06.615Z,7.70
2023-05-10T11:38:06.613Z,8.70
2023-05-10T11:39:06.587Z,9.80
2023-05-10T11:40:06.587Z,5.20
2023-05-10T11:41:06.558Z,8.70
2023-05-10T11:42:06.551Z,12.50
2023-05-10T11:43:06.560Z,6.30
2023-05-10T11:44:06.524Z,9.40
2023-05-10T11:45:06.521Z,7.90
2023-05-10T11:46:06.551Z,8.80
2023-05-10T11:47:06.521Z,10.10
2023-05-10T11:48:06.531Z,10.50
2023-05-10T11:49:06.477Z,6.30
2023-05-10T11:50:06.462Z,6.30
2023-05-10T11:51:06.451Z,7.00
2023-05-10T11:52:06.539Z,4.80
2023-05-10T11:53:06.457Z,6.70
2023-05-10T11:54:06.426Z,7.40
2023-05-10T11:55:06.417Z,6.30
2023-05-10T11:56:06.416Z,5.10
2023-05-10T11:57:06.437Z,9.70
2023-05-10T11:58:06.379Z,10.50
2023-05-10T11:59:06.363Z,11.20
2023-05-10T12:00:06.362Z,8.40
2023-05-10T12:01:06.395Z,8.10
2023-05-10T12:02:06.354Z,9.60
2023-05-10T12:03:06.406Z,10.80
2023-05-10T12:04:06.511Z,11.10
2023-05-10T12:05:06.431Z,13.60
2023-05-10T12:06:06.318Z,20.00
2023-05-10T12:07:06.289Z,14.50
2023-05-10T12:08:06.276Z,15.20
2023-05-10T12:09:06.281Z,11.40
2023-05-10T12:10:06.269Z,9.10
2023-05-10T12:11:06.271Z,8.80
2023-05-10T12:12:06.227Z,10.10
2023-05-10T12:13:06.245Z,10.30
2023-05-10T12:14:06.218Z,9.00
2023-05-10T12:15:06.232Z,9.50
2023-05-10T12:16:06.243Z,10.10
2023-05-10T12:17:06.198Z,11.90
2023-05-10T12:18:06.193Z,7.60
2023-05-10T12:19:06.467Z,7.80
2023-05-10T12:20:06.169Z,10.50
2023-05-10T12:21:06.150Z,9.70
2023-05-10T12:22:06.138Z,4.90
2023-05-10T12:23:06.133Z,10.70
2023-05-10T12:24:06.113Z,6.60
2023-05-10T12:25:06.124Z,5.20
2023-05-10T12:26:06.093Z,6.00
2023-05-10T12:27:06.107Z,6.70
2023-05-10T12:28:06.077Z,6.30
2023-05-10T12:29:06.083Z,7.50
2023-05-10T12:30:06.089Z,8.00
2023-05-10T12:31:06.050Z,5.00
2023-05-10T12:32:06.118Z,8.50
2023-05-10T12:33:06.110Z,12.30
2023-05-10T12:34:06.025Z,18.00
2023-05-10T12:35:06.010Z,17.40
2023-05-10T12:36:05.998Z,33.50
2023-05-10T12:37:05.997Z,25.90
2023-05-10T12:38:05.965Z,22.90
2023-05-10T12:39:05.987Z,27.30
2023-05-10T12:40:05.948Z,21.10
2023-05-10T12:41:05.978Z,15.90
2023-05-10T12:42:05.953Z,15.20
2023-05-10T12:43:05.957Z,26.90
2023-05-10T12:44:05.923Z,20.90
2023-05-10T12:45:05.904Z,15.50
2023-05-10T12:46:05.936Z,24.60
2023-05-10T12:47:05.886Z,26.10
2023-05-10T12:48:05.959Z,20.70
2023-05-10T12:49:09.615Z,23.80
2023-05-10T12:50:05.851Z,18.80
2023-05-10T12:51:05.846Z,18.00
2023-05-10T12:52:05.828Z,15.80
2023-05-10T12:53:05.841Z,15.60
2023-05-10T12:54:05.816Z,14.20
2023-05-10T12:55:05.801Z,13.50
2023-05-10T12:56:05.797Z,18.70
2023-05-10T12:57:05.803Z,17.40
2023-05-10T12:58:05.781Z,10.40
2023-05-10T12:59:05.762Z,11.40
2023-05-10T13:00:05.756Z,12.50
2023-05-10T13:01:05.879Z,13.70
2023-05-10T13:02:05.742Z,9.50
2023-05-10T13:03:05.751Z,19.90
2023-05-10T13:04:05.855Z,8.40
2023-05-10T13:05:05.864Z,14.50
2023-05-10T13:06:05.688Z,11.70
2023-05-10T13:07:05.712Z,10.80
2023-05-10T13:08:05.675Z,15.10
2023-05-10T13:09:05.684Z,13.90
2023-05-10T13:10:05.652Z,10.00
2023-05-10T13:11:05.659Z,8.40
2023-05-10T13:12:06.763Z,12.60